sensor_id;sensor_type;location;lat;lon;timestamp;P1;durP1;ratioP1;P2;durP2;ratioP2
16957;SDS011;8595;52.542;11.974;2023-06-22T00:02:00;9.55;;;8.75;;
16957;SDS011;8595;52.542;11.974;2023-06-22T00:04:27;11.52;;;9.32;;
16957;SDS011;8595;52.542;11.974;2023-06-22T00:06:54;8.85;;;7.90;;
16957;SDS011;8595;52.542;11.974;2023-06-22T00:09:21;9.60;;;8.57;;
16957;SDS011;8595;52.542;11.974;2023-06-22T00:11:48;8.90;;;7.75;;
16957;SDS011;8595;52.542;11.974;2023-06-22T00:14:16;9.13;;;8.25;;
16957;SDS011;8595;52.542;11.974;2023-06-22T00:16:43;8.73;;;7.78;;
16957;SDS011;8595;52.542;11.974;2023-06-22T00:19:13;8.98;;;8.20;;
16957;SDS011;8595;52.542;11.974;2023-06-22T00:21:40;10.43;;;8.18;;
16957;SDS011;8595;52.542;11.974;2023-06-22T00:24:07;11.75;;;8.75;;
16957;SDS011;8595;52.542;11.974;2023-06-22T00:26:34;8.98;;;8.18;;
16957;SDS011;8595;52.542;11.974;2023-06-22T00:29:00;10.27;;;7.95;;
16957;SDS011;8595;52.542;11.974;2023-06-22T00:31:29;10.50;;;8.45;;
16957;SDS011;8595;52.542;11.974;2023-06-22T00:33:55;9.27;;;7.88;;
16957;SDS011;8595;52.542;11.974;2023-06-22T00:36:22;9.63;;;8.45;;
16957;SDS011;8595;52.542;11.974;2023-06-22T00:38:49;8.43;;;7.72;;
16957;SDS011;8595;52.542;11.974;2023-06-22T00:41:16;8.10;;;7.40;;
16957;SDS011;8595;52.542;11.974;2023-06-22T00:43:43;9.77;;;8.88;;
16957;SDS011;8595;52.542;11.974;2023-06-22T00:46:11;9.27;;;8.38;;
16957;SDS011;8595;52.542;11.974;2023-06-22T00:48:39;12.27;;;8.43;;
16957;SDS011;8595;52.542;11.974;2023-06-22T00:51:09;11.77;;;9.10;;
16957;SDS011;8595;52.542;11.974;2023-06-22T00:53:36;9.90;;;9.00;;
16957;SDS011;8595;52.542;11.974;2023-06-22T00:56:03;8.57;;;7.78;;
16957;SDS011;8595;52.542;11.974;2023-06-22T00:58:31;9.15;;;8.35;;
16957;SDS011;8595;52.542;11.974;2023-06-22T01:00:58;9.27;;;8.38;;
16957;SDS011;8595;52.542;11.974;2023-06-22T01:03:26;9.63;;;8.63;;
16957;SDS011;8595;52.542;11.974;2023-06-22T01:05:54;10.32;;;9.43;;
16957;SDS011;8595;52.542;11.974;2023-06-22T01:08:29;10.07;;;9.15;;
16957;SDS011;8595;52.542;11.974;2023-06-22T01:11:05;9.88;;;8.98;;
16957;SDS011;8595;52.542;11.974;2023-06-22T01:13:35;10.40;;;9.35;;
16957;SDS011;8595;52.542;11.974;2023-06-22T01:16:06;9.77;;;8.77;;
16957;SDS011;8595;52.542;11.974;2023-06-22T01:18:36;11.27;;;9.40;;
16957;SDS011;8595;52.542;11.974;2023-06-22T01:21:09;10.55;;;9.48;;
16957;SDS011;8595;52.542;11.974;2023-06-22T01:23:42;10.65;;;9.40;;
16957;SDS011;8595;52.542;11.974;2023-06-22T01:26:25;11.18;;;10.07;;
16957;SDS011;8595;52.542;11.974;2023-06-22T01:29:02;11.27;;;9.82;;
16957;SDS011;8595;52.542;11.974;2023-06-22T01:31:31;10.93;;;9.98;;
16957;SDS011;8595;52.542;11.974;2023-06-22T01:34:05;10.20;;;9.23;;
16957;SDS011;8595;52.542;11.974;2023-06-22T01:36:33;11.30;;;10.10;;
16957;SDS011;8595;52.542;11.974;2023-06-22T01:39:01;10.65;;;9.68;;
16957;SDS011;8595;52.542;11.974;2023-06-22T01:41:33;9.13;;;8.32;;
16957;SDS011;8595;52.542;11.974;2023-06-22T01:44:03;9.70;;;8.80;;
16957;SDS011;8595;52.542;11.974;2023-06-22T01:46:33;11.02;;;9.77;;
16957;SDS011;8595;52.542;11.974;2023-06-22T01:49:01;10.55;;;9.45;;
16957;SDS011;8595;52.542;11.974;2023-06-22T01:51:28;10.45;;;9.45;;
16957;SDS011;8595;52.542;11.974;2023-06-22T01:53:56;9.85;;;8.95;;
16957;SDS011;8595;52.542;11.974;2023-06-22T01:56:22;9.45;;;8.50;;
16957;SDS011;8595;52.542;11.974;2023-06-22T01:58:53;11.40;;;10.20;;
16957;SDS011;8595;52.542;11.974;2023-06-22T02:01:38;10.68;;;9.68;;
16957;SDS011;8595;52.542;11.974;2023-06-22T02:04:12;10.90;;;9.75;;
16957;SDS011;8595;52.542;11.974;2023-06-22T02:06:45;10.43;;;9.27;;
16957;SDS011;8595;52.542;11.974;2023-06-22T02:09:14;9.60;;;8.68;;
16957;SDS011;8595;52.542;11.974;2023-06-22T02:11:44;9.75;;;8.85;;
16957;SDS011;8595;52.542;11.974;2023-06-22T02:14:13;10.35;;;9.35;;
16957;SDS011;8595;52.542;11.974;2023-06-22T02:16:41;9.80;;;8.90;;
16957;SDS011;8595;52.542;11.974;2023-06-22T02:19:08;10.38;;;9.10;;
16957;SDS011;8595;52.542;11.974;2023-06-22T02:21:35;10.05;;;9.05;;
16957;SDS011;8595;52.542;11.974;2023-06-22T02:24:03;10.50;;;9.45;;
16957;SDS011;8595;52.542;11.974;2023-06-22T02:26:30;10.82;;;9.70;;
16957;SDS011;8595;52.542;11.974;2023-06-22T02:28:59;10.38;;;9.35;;
16957;SDS011;8595;52.542;11.974;2023-06-22T02:31:26;10.80;;;8.52;;
16957;SDS011;8595;52.542;11.974;2023-06-22T02:33:57;9.38;;;8.40;;
16957;SDS011;8595;52.542;11.974;2023-06-22T02:36:24;9.57;;;8.70;;
16957;SDS011;8595;52.542;11.974;2023-06-22T02:38:51;12.45;;;9.60;;
16957;SDS011;8595;52.542;11.974;2023-06-22T02:41:19;8.90;;;8.18;;
16957;SDS011;8595;52.542;11.974;2023-06-22T02:43:46;10.10;;;8.82;;
16957;SDS011;8595;52.542;11.974;2023-06-22T02:46:13;9.80;;;8.73;;
16957;SDS011;8595;52.542;11.974;2023-06-22T02:48:40;10.05;;;8.73;;
16957;SDS011;8595;52.542;11.974;2023-06-22T02:51:08;9.80;;;8.90;;
16957;SDS011;8595;52.542;11.974;2023-06-22T02:53:35;11.60;;;10.40;;
16957;SDS011;8595;52.542;11.974;2023-06-22T02:56:04;11.00;;;10.00;;
16957;SDS011;8595;52.542;11.974;2023-06-22T02:58:31;10.88;;;9.77;;
16957;SDS011;8595;52.542;11.974;2023-06-22T03:01:03;10.13;;;9.13;;
16957;SDS011;8595;52.542;11.974;2023-06-22T03:03:30;11.43;;;10.30;;
16957;SDS011;8595;52.542;11.974;2023-06-22T03:05:57;10.13;;;9.13;;
16957;SDS011;8595;52.542;11.974;2023-06-22T03:08:27;11.30;;;9.00;;
16957;SDS011;8595;52.542;11.974;2023-06-22T03:10:54;9.52;;;8.63;;
16957;SDS011;8595;52.542;11.974;2023-06-22T03:13:21;10.57;;;8.80;;
16957;SDS011;8595;52.542;11.974;2023-06-22T03:15:48;12.05;;;9.95;;
16957;SDS011;8595;52.542;11.974;2023-06-22T03:18:18;9.90;;;9.00;;
16957;SDS011;8595;52.542;11.974;2023-06-22T03:20:47;9.75;;;8.80;;
16957;SDS011;8595;52.542;11.974;2023-06-22T03:23:14;11.40;;;9.43;;
16957;SDS011;8595;52.542;11.974;2023-06-22T03:25:42;9.88;;;8.90;;
16957;SDS011;8595;52.542;11.974;2023-06-22T03:28:09;10.88;;;9.48;;
16957;SDS011;8595;52.542;11.974;2023-06-22T03:30:36;10.60;;;8.27;;
16957;SDS011;8595;52.542;11.974;2023-06-22T03:33:03;10.30;;;9.30;;
16957;SDS011;8595;52.542;11.974;2023-06-22T03:35:30;10.10;;;8.32;;
16957;SDS011;8595;52.542;11.974;2023-06-22T03:37:57;10.38;;;9.07;;
16957;SDS011;8595;52.542;11.974;2023-06-22T03:40:24;12.15;;;9.40;;
16957;SDS011;8595;52.542;11.974;2023-06-22T03:42:52;12.13;;;9.43;;
16957;SDS011;8595;52.542;11.974;2023-06-22T03:45:19;10.95;;;9.80;;
16957;SDS011;8595;52.542;11.974;2023-06-22T03:47:46;10.48;;;8.38;;
16957;SDS011;8595;52.542;11.974;2023-06-22T03:50:12;10.77;;;9.52;;
16957;SDS011;8595;52.542;11.974;2023-06-22T03:52:39;12.00;;;8.90;;
16957;SDS011;8595;52.542;11.974;2023-06-22T03:55:07;9.13;;;8.32;;
16957;SDS011;8595;52.542;11.974;2023-06-22T03:57:34;9.82;;;8.68;;
16957;SDS011;8595;52.542;11.974;2023-06-22T04:00:02;11.20;;;8.57;;
16957;SDS011;8595;52.542;11.974;2023-06-22T04:02:30;9.60;;;8.60;;
16957;SDS011;8595;52.542;11.974;2023-06-22T04:04:57;10.13;;;7.55;;
16957;SDS011;8595;52.542;11.974;2023-06-22T04:07:24;10.50;;;8.35;;
16957;SDS011;8595;52.542;11.974;2023-06-22T04:09:51;11.27;;;8.45;;
16957;SDS011;8595;52.542;11.974;2023-06-22T04:12:17;8.65;;;7.75;;
16957;SDS011;8595;52.542;11.974;2023-06-22T04:14:44;9.52;;;8.57;;
16957;SDS011;8595;52.542;11.974;2023-06-22T04:17:12;8.98;;;7.88;;
16957;SDS011;8595;52.542;11.974;2023-06-22T04:19:40;10.23;;;8.80;;
16957;SDS011;8595;52.542;11.974;2023-06-22T04:22:06;10.05;;;8.75;;
16957;SDS011;8595;52.542;11.974;2023-06-22T04:24:33;8.63;;;7.80;;
16957;SDS011;8595;52.542;11.974;2023-06-22T04:27:00;12.65;;;8.65;;
16957;SDS011;8595;52.542;11.974;2023-06-22T04:29:29;9.07;;;8.10;;
16957;SDS011;8595;52.542;11.974;2023-06-22T04:31:57;9.27;;;7.70;;
16957;SDS011;8595;52.542;11.974;2023-06-22T04:34:29;9.82;;;8.30;;
16957;SDS011;8595;52.542;11.974;2023-06-22T04:36:56;11.68;;;9.40;;
16957;SDS011;8595;52.542;11.974;2023-06-22T04:39:22;14.57;;;8.07;;
16957;SDS011;8595;52.542;11.974;2023-06-22T04:41:50;9.60;;;8.65;;
16957;SDS011;8595;52.542;11.974;2023-06-22T04:44:18;11.35;;;8.75;;
16957;SDS011;8595;52.542;11.974;2023-06-22T04:46:49;8.32;;;7.45;;
16957;SDS011;8595;52.542;11.974;2023-06-22T04:49:19;11.52;;;8.48;;
16957;SDS011;8595;52.542;11.974;2023-06-22T04:51:48;8.75;;;7.72;;
16957;SDS011;8595;52.542;11.974;2023-06-22T04:54:16;9.80;;;8.85;;
16957;SDS011;8595;52.542;11.974;2023-06-22T04:56:43;13.18;;;9.23;;
16957;SDS011;8595;52.542;11.974;2023-06-22T04:59:11;8.93;;;8.00;;
16957;SDS011;8595;52.542;11.974;2023-06-22T05:01:39;9.73;;;8.52;;
16957;SDS011;8595;52.542;11.974;2023-06-22T05:04:05;8.80;;;7.95;;
16957;SDS011;8595;52.542;11.974;2023-06-22T05:06:32;9.35;;;8.30;;
16957;SDS011;8595;52.542;11.974;2023-06-22T05:09:01;9.88;;;8.05;;
16957;SDS011;8595;52.542;11.974;2023-06-22T05:11:28;11.05;;;8.25;;
16957;SDS011;8595;52.542;11.974;2023-06-22T05:13:55;10.57;;;8.20;;
16957;SDS011;8595;52.542;11.974;2023-06-22T05:16:22;11.88;;;7.80;;
16957;SDS011;8595;52.542;11.974;2023-06-22T05:18:53;9.30;;;8.40;;
16957;SDS011;8595;52.542;11.974;2023-06-22T05:21:24;10.55;;;9.38;;
16957;SDS011;8595;52.542;11.974;2023-06-22T05:23:51;11.73;;;8.93;;
16957;SDS011;8595;52.542;11.974;2023-06-22T05:26:21;10.38;;;9.27;;
16957;SDS011;8595;52.542;11.974;2023-06-22T05:28:48;10.68;;;9.52;;
16957;SDS011;8595;52.542;11.974;2023-06-22T05:31:15;8.70;;;7.80;;
16957;SDS011;8595;52.542;11.974;2023-06-22T05:33:45;11.20;;;8.57;;
16957;SDS011;8595;52.542;11.974;2023-06-22T05:36:12;10.77;;;8.52;;
16957;SDS011;8595;52.542;11.974;2023-06-22T05:38:40;8.45;;;7.35;;
16957;SDS011;8595;52.542;11.974;2023-06-22T05:41:07;7.97;;;7.18;;
16957;SDS011;8595;52.542;11.974;2023-06-22T05:43:36;10.27;;;9.13;;
16957;SDS011;8595;52.542;11.974;2023-06-22T05:46:03;9.77;;;8.57;;
16957;SDS011;8595;52.542;11.974;2023-06-22T05:48:30;9.52;;;8.52;;
16957;SDS011;8595;52.542;11.974;2023-06-22T05:50:57;10.00;;;9.00;;
16957;SDS011;8595;52.542;11.974;2023-06-22T05:53:24;10.55;;;9.48;;
16957;SDS011;8595;52.542;11.974;2023-06-22T05:55:51;10.77;;;9.45;;
16957;SDS011;8595;52.542;11.974;2023-06-22T05:58:18;10.10;;;9.10;;
16957;SDS011;8595;52.542;11.974;2023-06-22T06:00:47;12.00;;;10.27;;
16957;SDS011;8595;52.542;11.974;2023-06-22T06:03:14;13.05;;;10.55;;
16957;SDS011;8595;52.542;11.974;2023-06-22T06:05:42;12.10;;;9.85;;
16957;SDS011;8595;52.542;11.974;2023-06-22T06:08:09;12.10;;;9.57;;
16957;SDS011;8595;52.542;11.974;2023-06-22T06:10:37;12.02;;;9.93;;
16957;SDS011;8595;52.542;11.974;2023-06-22T06:13:04;11.43;;;9.48;;
16957;SDS011;8595;52.542;11.974;2023-06-22T06:15:30;11.18;;;9.98;;
16957;SDS011;8595;52.542;11.974;2023-06-22T06:17:58;10.82;;;9.73;;
16957;SDS011;8595;52.542;11.974;2023-06-22T06:20:26;11.77;;;10.00;;
16957;SDS011;8595;52.542;11.974;2023-06-22T06:22:53;11.05;;;9.95;;
16957;SDS011;8595;52.542;11.974;2023-06-22T06:25:20;13.38;;;12.05;;
16957;SDS011;8595;52.542;11.974;2023-06-22T06:27:47;12.82;;;10.40;;
16957;SDS011;8595;52.542;11.974;2023-06-22T06:30:15;12.30;;;9.82;;
16957;SDS011;8595;52.542;11.974;2023-06-22T06:32:44;11.30;;;10.20;;
16957;SDS011;8595;52.542;11.974;2023-06-22T06:35:13;11.48;;;9.43;;
16957;SDS011;8595;52.542;11.974;2023-06-22T06:37:41;13.50;;;10.05;;
16957;SDS011;8595;52.542;11.974;2023-06-22T06:40:09;11.00;;;9.90;;
16957;SDS011;8595;52.542;11.974;2023-06-22T06:42:38;10.07;;;9.15;;
16957;SDS011;8595;52.542;11.974;2023-06-22T06:45:05;10.63;;;9.63;;
16957;SDS011;8595;52.542;11.974;2023-06-22T06:47:33;10.93;;;8.70;;
16957;SDS011;8595;52.542;11.974;2023-06-22T06:49:59;10.70;;;9.60;;
16957;SDS011;8595;52.542;11.974;2023-06-22T06:52:28;9.75;;;8.82;;
16957;SDS011;8595;52.542;11.974;2023-06-22T06:54:54;9.10;;;8.25;;
16957;SDS011;8595;52.542;11.974;2023-06-22T06:57:21;10.77;;;8.73;;
16957;SDS011;8595;52.542;11.974;2023-06-22T06:59:54;11.82;;;8.93;;
16957;SDS011;8595;52.542;11.974;2023-06-22T07:02:21;9.60;;;8.60;;
16957;SDS011;8595;52.542;11.974;2023-06-22T07:04:48;9.45;;;8.55;;
16957;SDS011;8595;52.542;11.974;2023-06-22T07:07:15;8.82;;;7.95;;
16957;SDS011;8595;52.542;11.974;2023-06-22T07:09:43;10.60;;;8.05;;
16957;SDS011;8595;52.542;11.974;2023-06-22T07:12:10;8.93;;;8.00;;
16957;SDS011;8595;52.542;11.974;2023-06-22T07:14:37;9.43;;;8.52;;
16957;SDS011;8595;52.542;11.974;2023-06-22T07:17:04;9.57;;;8.57;;
16957;SDS011;8595;52.542;11.974;2023-06-22T07:19:32;9.90;;;8.05;;
16957;SDS011;8595;52.542;11.974;2023-06-22T07:21:59;11.02;;;8.32;;
16957;SDS011;8595;52.542;11.974;2023-06-22T07:24:26;8.50;;;7.47;;
16957;SDS011;8595;52.542;11.974;2023-06-22T07:26:54;8.90;;;7.38;;
16957;SDS011;8595;52.542;11.974;2023-06-22T07:29:22;8.77;;;6.30;;
16957;SDS011;8595;52.542;11.974;2023-06-22T07:31:51;8.57;;;5.80;;
16957;SDS011;8595;52.542;11.974;2023-06-22T07:34:19;10.40;;;6.68;;
16957;SDS011;8595;52.542;11.974;2023-06-22T07:36:45;7.05;;;6.40;;
16957;SDS011;8595;52.542;11.974;2023-06-22T07:39:12;13.15;;;6.80;;
16957;SDS011;8595;52.542;11.974;2023-06-22T07:41:39;10.10;;;7.30;;
16957;SDS011;8595;52.542;11.974;2023-06-22T07:44:08;7.95;;;7.15;;
16957;SDS011;8595;52.542;11.974;2023-06-22T07:46:36;7.82;;;6.75;;
16957;SDS011;8595;52.542;11.974;2023-06-22T07:49:03;11.55;;;6.75;;
16957;SDS011;8595;52.542;11.974;2023-06-22T07:51:30;10.75;;;6.28;;
16957;SDS011;8595;52.542;11.974;2023-06-22T07:53:57;7.30;;;6.57;;
16957;SDS011;8595;52.542;11.974;2023-06-22T07:56:24;7.45;;;6.72;;
16957;SDS011;8595;52.542;11.974;2023-06-22T07:58:51;8.63;;;6.78;;
16957;SDS011;8595;52.542;11.974;2023-06-22T08:01:19;7.75;;;7.05;;
16957;SDS011;8595;52.542;11.974;2023-06-22T08:03:47;6.93;;;6.22;;
16957;SDS011;8595;52.542;11.974;2023-06-22T08:06:16;13.13;;;6.20;;
16957;SDS011;8595;52.542;11.974;2023-06-22T08:08:43;6.68;;;5.57;;
16957;SDS011;8595;52.542;11.974;2023-06-22T08:11:13;8.18;;;6.05;;
16957;SDS011;8595;52.542;11.974;2023-06-22T08:13:39;6.85;;;6.15;;
16957;SDS011;8595;52.542;11.974;2023-06-22T08:16:06;9.20;;;6.03;;
16957;SDS011;8595;52.542;11.974;2023-06-22T08:18:34;6.90;;;6.28;;
16957;SDS011;8595;52.542;11.974;2023-06-22T08:21:01;7.80;;;6.03;;
16957;SDS011;8595;52.542;11.974;2023-06-22T08:23:28;6.97;;;5.70;;
16957;SDS011;8595;52.542;11.974;2023-06-22T08:25:55;10.15;;;6.10;;
16957;SDS011;8595;52.542;11.974;2023-06-22T08:28:21;6.82;;;6.22;;
16957;SDS011;8595;52.542;11.974;2023-06-22T08:30:48;7.43;;;5.43;;
16957;SDS011;8595;52.542;11.974;2023-06-22T08:33:15;6.07;;;5.22;;
16957;SDS011;8595;52.542;11.974;2023-06-22T08:35:44;6.95;;;4.93;;
16957;SDS011;8595;52.542;11.974;2023-06-22T08:38:10;8.73;;;5.82;;
16957;SDS011;8595;52.542;11.974;2023-06-22T08:40:39;5.55;;;5.00;;
16957;SDS011;8595;52.542;11.974;2023-06-22T08:43:05;8.07;;;5.40;;
16957;SDS011;8595;52.542;11.974;2023-06-22T08:45:33;6.15;;;5.28;;
16957;SDS011;8595;52.542;11.974;2023-06-22T08:48:00;8.45;;;5.68;;
16957;SDS011;8595;52.542;11.974;2023-06-22T08:50:27;10.00;;;5.70;;
16957;SDS011;8595;52.542;11.974;2023-06-22T08:52:55;6.55;;;5.63;;
16957;SDS011;8595;52.542;11.974;2023-06-22T08:55:22;6.22;;;5.45;;
16957;SDS011;8595;52.542;11.974;2023-06-22T08:57:49;6.75;;;5.32;;
16957;SDS011;8595;52.542;11.974;2023-06-22T09:00:16;8.82;;;5.07;;
16957;SDS011;8595;52.542;11.974;2023-06-22T09:02:45;7.45;;;5.05;;
16957;SDS011;8595;52.542;11.974;2023-06-22T09:05:12;5.82;;;5.22;;
16957;SDS011;8595;52.542;11.974;2023-06-22T09:07:40;5.97;;;5.15;;
16957;SDS011;8595;52.542;11.974;2023-06-22T09:10:08;6.03;;;5.50;;
16957;SDS011;8595;52.542;11.974;2023-06-22T09:12:36;7.07;;;5.72;;
16957;SDS011;8595;52.542;11.974;2023-06-22T09:15:03;6.50;;;4.97;;
16957;SDS011;8595;52.542;11.974;2023-06-22T09:17:32;6.97;;;5.70;;
16957;SDS011;8595;52.542;11.974;2023-06-22T09:20:00;7.00;;;5.63;;
16957;SDS011;8595;52.542;11.974;2023-06-22T09:22:30;5.78;;;5.22;;
16957;SDS011;8595;52.542;11.974;2023-06-22T09:24:57;5.70;;;5.10;;
16957;SDS011;8595;52.542;11.974;2023-06-22T09:27:26;7.65;;;5.65;;
16957;SDS011;8595;52.542;11.974;2023-06-22T09:29:52;7.18;;;6.35;;
16957;SDS011;8595;52.542;11.974;2023-06-22T09:32:19;7.03;;;5.60;;
16957;SDS011;8595;52.542;11.974;2023-06-22T09:34:46;7.32;;;5.35;;
16957;SDS011;8595;52.542;11.974;2023-06-22T09:37:13;5.97;;;5.47;;
16957;SDS011;8595;52.542;11.974;2023-06-22T09:39:39;5.53;;;4.93;;
16957;SDS011;8595;52.542;11.974;2023-06-22T09:42:06;6.20;;;5.60;;
16957;SDS011;8595;52.542;11.974;2023-06-22T09:44:35;8.45;;;5.10;;
16957;SDS011;8595;52.542;11.974;2023-06-22T09:47:02;7.05;;;4.40;;
16957;SDS011;8595;52.542;11.974;2023-06-22T09:49:30;6.82;;;5.55;;
16957;SDS011;8595;52.542;11.974;2023-06-22T09:51:57;14.20;;;5.53;;
16957;SDS011;8595;52.542;11.974;2023-06-22T09:54:24;5.85;;;5.28;;
16957;SDS011;8595;52.542;11.974;2023-06-22T09:56:51;6.28;;;4.88;;
16957;SDS011;8595;52.542;11.974;2023-06-22T09:59:18;8.80;;;4.78;;
16957;SDS011;8595;52.542;11.974;2023-06-22T10:01:46;5.13;;;4.63;;
16957;SDS011;8595;52.542;11.974;2023-06-22T10:04:15;5.78;;;4.80;;
16957;SDS011;8595;52.542;11.974;2023-06-22T10:06:41;6.22;;;4.95;;
16957;SDS011;8595;52.542;11.974;2023-06-22T10:09:08;6.40;;;5.78;;
16957;SDS011;8595;52.542;11.974;2023-06-22T10:11:35;6.43;;;5.00;;
16957;SDS011;8595;52.542;11.974;2023-06-22T10:14:02;6.90;;;5.07;;
16957;SDS011;8595;52.542;11.974;2023-06-22T10:16:32;9.43;;;4.78;;
16957;SDS011;8595;52.542;11.974;2023-06-22T10:19:02;5.93;;;5.32;;
16957;SDS011;8595;52.542;11.974;2023-06-22T10:21:28;6.90;;;5.35;;
16957;SDS011;8595;52.542;11.974;2023-06-22T10:23:55;11.80;;;5.50;;
16957;SDS011;8595;52.542;11.974;2023-06-22T10:26:22;5.30;;;4.75;;
16957;SDS011;8595;52.542;11.974;2023-06-22T10:28:49;7.10;;;5.40;;
16957;SDS011;8595;52.542;11.974;2023-06-22T10:31:16;6.05;;;4.80;;
16957;SDS011;8595;52.542;11.974;2023-06-22T10:33:43;7.78;;;5.22;;
16957;SDS011;8595;52.542;11.974;2023-06-22T10:36:12;5.93;;;5.32;;
16957;SDS011;8595;52.542;11.974;2023-06-22T10:38:38;5.88;;;5.10;;
16957;SDS011;8595;52.542;11.974;2023-06-22T10:41:05;5.88;;;5.30;;
16957;SDS011;8595;52.542;11.974;2023-06-22T10:43:32;5.32;;;4.82;;
16957;SDS011;8595;52.542;11.974;2023-06-22T10:45:58;5.53;;;5.03;;
16957;SDS011;8595;52.542;11.974;2023-06-22T10:48:25;9.18;;;5.43;;
16957;SDS011;8595;52.542;11.974;2023-06-22T10:50:52;6.70;;;4.72;;
16957;SDS011;8595;52.542;11.974;2023-06-22T10:53:21;5.43;;;4.93;;
16957;SDS011;8595;52.542;11.974;2023-06-22T10:55:47;7.60;;;5.45;;
16957;SDS011;8595;52.542;11.974;2023-06-22T10:58:14;6.35;;;4.65;;
16957;SDS011;8595;52.542;11.974;2023-06-22T11:00:41;6.55;;;5.95;;
16957;SDS011;8595;52.542;11.974;2023-06-22T11:03:07;7.28;;;4.78;;
16957;SDS011;8595;52.542;11.974;2023-06-22T11:05:34;5.80;;;5.10;;
16957;SDS011;8595;52.542;11.974;2023-06-22T11:08:01;6.75;;;5.47;;
16957;SDS011;8595;52.542;11.974;2023-06-22T11:10:29;6.50;;;5.10;;
16957;SDS011;8595;52.542;11.974;2023-06-22T11:12:57;6.60;;;5.50;;
16957;SDS011;8595;52.542;11.974;2023-06-22T11:15:23;7.43;;;5.68;;
16957;SDS011;8595;52.542;11.974;2023-06-22T11:17:50;5.97;;;4.97;;
16957;SDS011;8595;52.542;11.974;2023-06-22T11:20:17;6.50;;;5.80;;
16957;SDS011;8595;52.542;11.974;2023-06-22T11:22:44;7.72;;;5.65;;
16957;SDS011;8595;52.542;11.974;2023-06-22T11:25:12;7.00;;;6.30;;
16957;SDS011;8595;52.542;11.974;2023-06-22T11:27:40;6.18;;;5.57;;
16957;SDS011;8595;52.542;11.974;2023-06-22T11:30:07;9.48;;;6.10;;
16957;SDS011;8595;52.542;11.974;2023-06-22T11:32:34;13.63;;;7.07;;
16957;SDS011;8595;52.542;11.974;2023-06-22T11:35:01;7.20;;;6.03;;
16957;SDS011;8595;52.542;11.974;2023-06-22T11:37:28;6.13;;;5.63;;
16957;SDS011;8595;52.542;11.974;2023-06-22T11:39:55;7.07;;;5.95;;
16957;SDS011;8595;52.542;11.974;2023-06-22T11:42:23;8.60;;;6.28;;
16957;SDS011;8595;52.542;11.974;2023-06-22T11:44:51;8.00;;;5.95;;
16957;SDS011;8595;52.542;11.974;2023-06-22T11:47:18;6.90;;;6.20;;
16957;SDS011;8595;52.542;11.974;2023-06-22T11:49:45;9.85;;;7.53;;
16957;SDS011;8595;52.542;11.974;2023-06-22T11:52:12;8.57;;;7.00;;
16957;SDS011;8595;52.542;11.974;2023-06-22T11:54:40;10.13;;;6.97;;
16957;SDS011;8595;52.542;11.974;2023-06-22T11:57:07;8.48;;;6.53;;
16957;SDS011;8595;52.542;11.974;2023-06-22T11:59:34;6.85;;;6.30;;
16957;SDS011;8595;52.542;11.974;2023-06-22T12:02:02;7.18;;;6.40;;
16957;SDS011;8595;52.542;11.974;2023-06-22T12:04:30;6.97;;;6.38;;
16957;SDS011;8595;52.542;11.974;2023-06-22T12:06:57;8.23;;;6.88;;
16957;SDS011;8595;52.542;11.974;2023-06-22T12:09:24;7.45;;;6.75;;
16957;SDS011;8595;52.542;11.974;2023-06-22T12:11:50;6.72;;;6.13;;
16957;SDS011;8595;52.542;11.974;2023-06-22T12:14:17;7.25;;;6.60;;
16957;SDS011;8595;52.542;11.974;2023-06-22T12:16:44;7.10;;;6.50;;
16957;SDS011;8595;52.542;11.974;2023-06-22T12:19:12;7.45;;;6.75;;
16957;SDS011;8595;52.542;11.974;2023-06-22T12:21:39;7.32;;;6.63;;
16957;SDS011;8595;52.542;11.974;2023-06-22T12:24:06;8.75;;;6.93;;
16957;SDS011;8595;52.542;11.974;2023-06-22T12:26:33;8.00;;;6.82;;
16957;SDS011;8595;52.542;11.974;2023-06-22T12:29:00;10.82;;;6.43;;
16957;SDS011;8595;52.542;11.974;2023-06-22T12:31:26;7.20;;;6.50;;
16957;SDS011;8595;52.542;11.974;2023-06-22T12:33:53;8.10;;;7.30;;
16957;SDS011;8595;52.542;11.974;2023-06-22T12:36:21;6.85;;;6.25;;
16957;SDS011;8595;52.542;11.974;2023-06-22T12:38:49;7.30;;;6.65;;
16957;SDS011;8595;52.542;11.974;2023-06-22T12:41:16;7.65;;;5.38;;
16957;SDS011;8595;52.542;11.974;2023-06-22T12:43:43;7.20;;;6.22;;
16957;SDS011;8595;52.542;11.974;2023-06-22T12:46:10;7.32;;;6.63;;
16957;SDS011;8595;52.542;11.974;2023-06-22T12:48:37;7.25;;;6.55;;
16957;SDS011;8595;52.542;11.974;2023-06-22T12:51:07;6.72;;;6.03;;
16957;SDS011;8595;52.542;11.974;2023-06-22T12:53:35;11.27;;;6.28;;
16957;SDS011;8595;52.542;11.974;2023-06-22T12:56:02;7.70;;;6.90;;
16957;SDS011;8595;52.542;11.974;2023-06-22T12:58:29;7.70;;;6.57;;
16957;SDS011;8595;52.542;11.974;2023-06-22T13:00:55;6.82;;;6.22;;
16957;SDS011;8595;52.542;11.974;2023-06-22T13:03:22;7.45;;;6.60;;
16957;SDS011;8595;52.542;11.974;2023-06-22T13:05:51;6.80;;;6.20;;
16957;SDS011;8595;52.542;11.974;2023-06-22T13:08:18;7.40;;;6.53;;
16957;SDS011;8595;52.542;11.974;2023-06-22T13:10:46;7.53;;;6.85;;
16957;SDS011;8595;52.542;11.974;2023-06-22T13:13:14;13.10;;;6.88;;
16957;SDS011;8595;52.542;11.974;2023-06-22T13:15:40;7.13;;;6.45;;
16957;SDS011;8595;52.542;11.974;2023-06-22T13:18:07;6.15;;;5.65;;
16957;SDS011;8595;52.542;11.974;2023-06-22T13:20:34;6.35;;;5.75;;
16957;SDS011;8595;52.542;11.974;2023-06-22T13:23:02;10.98;;;6.20;;
16957;SDS011;8595;52.542;11.974;2023-06-22T13:25:29;6.47;;;5.93;;
16957;SDS011;8595;52.542;11.974;2023-06-22T13:27:57;6.68;;;5.82;;
16957;SDS011;8595;52.542;11.974;2023-06-22T13:30:24;7.57;;;6.88;;
16957;SDS011;8595;52.542;11.974;2023-06-22T13:32:51;7.20;;;6.60;;
16957;SDS011;8595;52.542;11.974;2023-06-22T13:35:18;7.00;;;6.20;;
16957;SDS011;8595;52.542;11.974;2023-06-22T13:37:44;10.48;;;6.70;;
16957;SDS011;8595;52.542;11.974;2023-06-22T13:40:14;6.18;;;5.68;;
16957;SDS011;8595;52.542;11.974;2023-06-22T13:42:42;7.85;;;6.85;;
16957;SDS011;8595;52.542;11.974;2023-06-22T13:45:10;7.22;;;6.53;;
16957;SDS011;8595;52.542;11.974;2023-06-22T13:47:37;7.05;;;6.43;;
16957;SDS011;8595;52.542;11.974;2023-06-22T13:50:04;7.80;;;7.00;;
16957;SDS011;8595;52.542;11.974;2023-06-22T13:52:32;7.40;;;6.70;;
16957;SDS011;8595;52.542;11.974;2023-06-22T13:54:59;7.53;;;6.15;;
16957;SDS011;8595;52.542;11.974;2023-06-22T13:57:26;11.73;;;7.05;;
16957;SDS011;8595;52.542;11.974;2023-06-22T13:59:53;9.48;;;6.20;;
16957;SDS011;8595;52.542;11.974;2023-06-22T14:02:21;9.95;;;7.32;;
16957;SDS011;8595;52.542;11.974;2023-06-22T14:04:47;7.50;;;6.10;;
16957;SDS011;8595;52.542;11.974;2023-06-22T14:07:14;6.25;;;5.75;;
16957;SDS011;8595;52.542;11.974;2023-06-22T14:09:41;7.00;;;6.40;;
16957;SDS011;8595;52.542;11.974;2023-06-22T14:12:09;6.78;;;6.15;;
16957;SDS011;8595;52.542;11.974;2023-06-22T14:14:36;6.70;;;6.10;;
16957;SDS011;8595;52.542;11.974;2023-06-22T14:17:03;9.13;;;6.95;;
16957;SDS011;8595;52.542;11.974;2023-06-22T14:19:32;6.57;;;5.97;;
16957;SDS011;8595;52.542;11.974;2023-06-22T14:21:59;7.22;;;6.35;;
16957;SDS011;8595;52.542;11.974;2023-06-22T14:24:25;9.32;;;6.20;;
16957;SDS011;8595;52.542;11.974;2023-06-22T14:26:53;6.22;;;5.63;;
16957;SDS011;8595;52.542;11.974;2023-06-22T14:29:20;6.97;;;6.38;;
16957;SDS011;8595;52.542;11.974;2023-06-22T14:31:47;6.82;;;5.75;;
16957;SDS011;8595;52.542;11.974;2023-06-22T14:34:15;6.22;;;5.72;;
16957;SDS011;8595;52.542;11.974;2023-06-22T14:36:43;9.35;;;5.93;;
16957;SDS011;8595;52.542;11.974;2023-06-22T14:39:10;6.25;;;5.55;;
16957;SDS011;8595;52.542;11.974;2023-06-22T14:41:36;6.55;;;6.05;;
16957;SDS011;8595;52.542;11.974;2023-06-22T14:44:03;7.15;;;6.45;;
16957;SDS011;8595;52.542;11.974;2023-06-22T14:46:30;8.15;;;5.88;;